createdAt,value
2023-02-21T00:01:08.706Z,99626.97
2023-02-21T00:03:10.223Z,99613.59
2023-02-21T00:05:11.885Z,99611.97
2023-02-21T00:07:13.334Z,99599.81
2023-02-21T00:09:14.916Z,99612.81
2023-02-21T00:11:16.619Z,99615.06
2023-02-21T00:13:18.158Z,99601.94
2023-02-21T00:15:19.890Z,99619.00
2023-02-21T00:17:21.423Z,99582.16
2023-02-21T00:19:22.821Z,99626.50
2023-02-21T00:21:27.204Z,99596.47
2023-02-21T00:23:28.717Z,99610.44
2023-02-21T00:25:30.094Z,99605.66
2023-02-21T00:27:31.630Z,99605.44
2023-02-21T00:29:33.273Z,99605.69
2023-02-21T00:31:34.703Z,99598.22
2023-02-21T00:33:37.232Z,99599.63
2023-02-21T00:35:38.707Z,99603.63
2023-02-21T00:37:40.104Z,99608.34
2023-02-21T00:39:41.563Z,99596.00
2023-02-21T00:41:43.031Z,99583.28
2023-02-21T00:43:44.440Z,99589.72
2023-02-21T00:45:46.415Z,99595.97
2023-02-21T00:47:47.841Z,99590.44
2023-02-21T00:49:49.289Z,99572.81
2023-02-21T00:51:51.322Z,99609.63
2023-02-21T00:53:53.045Z,99595.03
2023-02-21T00:55:54.505Z,99562.44
2023-02-21T00:57:56.113Z,99601.97
2023-02-21T00:59:57.521Z,99594.69
2023-02-21T01:01:58.935Z,99588.00
2023-02-21T01:04:00.411Z,99589.38
2023-02-21T01:06:02.029Z,99568.78
2023-02-21T01:08:03.475Z,99594.69
2023-02-21T01:10:05.285Z,99570.81
2023-02-21T01:12:06.863Z,99563.91
2023-02-21T01:14:08.569Z,99587.44
2023-02-21T01:16:10.268Z,99582.75
2023-02-21T01:18:12.031Z,99555.28
2023-02-21T01:20:13.477Z,99594.63
2023-02-21T01:22:15.796Z,99574.47
2023-02-21T01:24:17.303Z,99576.34
2023-02-21T01:26:18.772Z,99573.50
2023-02-21T01:28:20.632Z,99436.56
2023-02-21T01:30:22.357Z,99573.31
2023-02-21T01:32:23.807Z,99571.47
2023-02-21T01:34:25.355Z,99565.94
2023-02-21T01:36:27.433Z,99563.13
2023-02-21T01:38:28.833Z,99569.53
2023-02-21T01:40:30.428Z,99571.00
2023-02-21T01:42:32.231Z,99538.78
2023-02-21T01:44:42.300Z,99559.06
2023-02-21T01:46:44.035Z,99565.78
2023-02-21T01:48:47.679Z,99580.94
2023-02-21T01:50:48.990Z,99586.19
2023-02-21T01:52:51.245Z,99577.69
2023-02-21T01:54:54.939Z,99581.69
2023-02-21T01:56:58.851Z,99587.22
2023-02-21T01:59:02.023Z,99587.06
2023-02-21T02:01:03.565Z,99584.91
2023-02-21T02:03:07.692Z,99588.38
2023-02-21T02:05:11.557Z,99587.47
2023-02-21T02:07:13.726Z,99576.09
2023-02-21T02:09:20.086Z,99576.00
2023-02-21T02:11:48.000Z,99570.03
2023-02-21T02:14:05.732Z,99592.91
2023-02-21T02:16:07.430Z,99599.25
2023-02-21T02:18:17.174Z,99584.44
2023-02-21T02:20:56.232Z,99591.84
2023-02-21T02:23:30.849Z,99594.22
2023-02-21T02:26:09.910Z,99597.00
2023-02-21T02:28:30.151Z,99611.19
2023-02-21T02:30:45.254Z,99592.44
2023-02-21T02:33:20.717Z,99586.72
2023-02-21T02:35:28.114Z,99607.06
2023-02-21T02:37:41.150Z,99611.72
2023-02-21T02:39:55.034Z,99623.97
2023-02-21T02:42:07.316Z,99629.81
2023-02-21T02:44:18.639Z,99626.41
2023-02-21T02:46:24.619Z,99598.91
2023-02-21T02:48:32.728Z,99605.50
2023-02-21T02:50:34.620Z,99624.28
2023-02-21T02:52:36.264Z,99611.16
2023-02-21T02:54:37.812Z,99622.84
2023-02-21T02:56:39.442Z,99618.03
2023-02-21T02:58:46.533Z,99614.44
2023-02-21T03:01:08.915Z,99618.34
2023-02-21T03:03:35.021Z,99622.53
2023-02-21T03:05:51.543Z,99628.63
2023-02-21T03:08:11.697Z,99620.13
2023-02-21T03:10:23.690Z,99632.16
2023-02-21T03:12:43.421Z,99624.84
2023-02-21T03:14:54.808Z,99626.56
2023-02-21T03:17:02.949Z,99636.16
2023-02-21T03:19:10.912Z,99630.34
2023-02-21T03:21:17.608Z,99641.09
2023-02-21T03:23:21.400Z,99631.84
2023-02-21T03:25:23.692Z,99618.63
2023-02-21T03:27:26.627Z,99627.47
2023-02-21T03:29:28.889Z,99619.41
2023-02-21T03:31:36.637Z,99635.09
2023-02-21T03:33:38.430Z,99615.66
2023-02-21T03:35:39.993Z,99634.97
2023-02-21T03:37:47.448Z,99567.84
2023-02-21T03:39:48.926Z,99614.00
2023-02-21T03:41:50.646Z,99621.09
2023-02-21T03:43:52.023Z,99641.09
2023-02-21T03:45:53.525Z,99640.28
2023-02-21T03:47:55.196Z,99610.97
2023-02-21T03:49:56.639Z,99624.72
2023-02-21T03:51:58.242Z,99621.34
2023-02-21T03:53:59.765Z,99609.72
2023-02-21T03:56:01.220Z,99625.22
2023-02-21T03:58:02.746Z,99620.28
2023-02-21T04:00:05.263Z,99623.41
2023-02-21T04:02:06.744Z,99575.16
2023-02-21T04:04:08.303Z,99601.41
2023-02-21T04:06:09.929Z,99634.81
2023-02-21T04:08:11.664Z,99631.69
2023-02-21T04:10:14.247Z,99640.47
2023-02-21T04:12:15.852Z,99624.75
2023-02-21T04:14:17.267Z,99610.34
2023-02-21T04:16:18.796Z,99625.22
2023-02-21T04:18:20.448Z,99624.03
2023-02-21T04:20:21.840Z,99615.16
2023-02-21T04:22:23.381Z,99630.81
2023-02-21T04:24:24.902Z,99635.03
2023-02-21T04:26:26.402Z,99632.44
2023-02-21T04:28:28.151Z,99616.13
2023-02-21T04:30:29.676Z,99608.81
2023-02-21T04:32:31.081Z,99609.00
2023-02-21T04:34:32.617Z,99615.47
2023-02-21T04:36:34.088Z,99633.50
2023-02-21T04:38:35.641Z,99633.84
2023-02-21T04:40:37.111Z,99619.28
2023-02-21T04:42:38.775Z,99624.09
2023-02-21T04:44:41.477Z,99623.59
2023-02-21T04:46:42.924Z,99628.22
2023-02-21T04:48:46.791Z,99630.50
2023-02-21T04:50:48.211Z,99608.19
2023-02-21T04:52:49.614Z,99613.66
2023-02-21T04:54:51.205Z,99612.19
2023-02-21T04:56:52.689Z,99626.38
2023-02-21T04:58:54.451Z,99607.69
2023-02-21T05:00:56.005Z,99612.78
2023-02-21T05:02:57.647Z,99647.22
2023-02-21T05:04:59.100Z,99607.06
2023-02-21T05:07:00.842Z,99592.03
2023-02-21T05:09:03.268Z,99628.06
2023-02-21T05:11:05.800Z,99600.28
2023-02-21T05:13:07.259Z,99626.25
2023-02-21T05:15:09.840Z,99642.75
2023-02-21T05:17:11.402Z,99624.06
2023-02-21T05:19:13.052Z,99630.03
2023-02-21T05:21:16.379Z,99606.38
2023-02-21T05:23:19.221Z,99628.19
2023-02-21T05:25:23.381Z,99629.88
2023-02-21T05:27:24.859Z,99625.56
2023-02-21T05:29:27.063Z,99615.94
2023-02-21T05:31:29.079Z,99597.94
2023-02-21T05:33:30.758Z,99622.38
2023-02-21T05:35:32.390Z,99635.78
2023-02-21T05:37:33.958Z,99632.47
2023-02-21T05:39:35.432Z,99634.41
2023-02-21T05:41:37.098Z,99611.84
2023-02-21T05:43:38.735Z,99624.72
2023-02-21T05:45:40.217Z,99633.09
2023-02-21T05:47:41.806Z,99624.41
2023-02-21T05:49:44.048Z,99627.56
2023-02-21T05:51:45.459Z,99640.47
2023-02-21T05:53:47.420Z,99622.78
2023-02-21T05:55:48.961Z,99635.97
2023-02-21T05:57:50.355Z,99633.38
2023-02-21T05:59:51.859Z,99618.31
2023-02-21T06:01:53.333Z,99631.88
2023-02-21T06:03:54.734Z,99589.03
2023-02-21T06:05:56.377Z,99629.22
2023-02-21T06:07:59.459Z,99631.88
2023-02-21T06:10:00.864Z,99647.41
2023-02-21T06:12:02.434Z,99638.13
2023-02-21T06:14:06.406Z,99633.00
2023-02-21T06:16:08.352Z,99634.16
2023-02-21T06:18:13.416Z,99651.53
2023-02-21T06:20:15.276Z,99642.09
2023-02-21T06:22:17.420Z,99670.00
2023-02-21T06:24:18.921Z,99663.44
2023-02-21T06:26:21.034Z,99677.84
2023-02-21T06:28:22.426Z,99683.28
2023-02-21T06:30:23.954Z,99677.56
2023-02-21T06:32:25.517Z,99652.34
2023-02-21T06:34:28.125Z,99696.50
2023-02-21T06:36:29.730Z,99673.44
2023-02-21T06:38:31.247Z,99700.09
2023-02-21T06:40:32.653Z,99689.63
2023-02-21T06:42:34.627Z,99700.25
2023-02-21T06:44:36.030Z,99706.03
2023-02-21T06:46:37.527Z,99698.72
2023-02-21T06:48:39.186Z,99692.84
2023-02-21T06:50:40.658Z,99709.03
2023-02-21T06:52:42.045Z,99705.72
2023-02-21T06:54:43.586Z,99724.44
2023-02-21T06:56:45.083Z,99726.84
2023-02-21T06:58:46.493Z,99723.75
2023-02-21T07:00:47.991Z,99715.47
2023-02-21T07:02:49.487Z,99711.63
2023-02-21T07:04:50.969Z,99734.69
2023-02-21T07:06:53.493Z,99744.66
2023-02-21T07:08:54.976Z,99700.75
2023-02-21T07:10:56.654Z,99720.03
2023-02-21T07:12:58.159Z,99750.19
2023-02-21T07:14:59.718Z,99722.22
2023-02-21T07:17:01.219Z,99741.88
2023-02-21T07:19:02.927Z,99780.28
2023-02-21T07:21:04.497Z,99779.25
2023-02-21T07:23:05.925Z,99794.00
2023-02-21T07:25:07.624Z,99796.09
2023-02-21T07:27:09.226Z,99807.44
2023-02-21T07:29:10.714Z,99788.84
2023-02-21T07:31:12.514Z,99793.44
2023-02-21T07:33:14.364Z,99786.59
2023-02-21T07:35:15.868Z,99809.69
2023-02-21T07:37:17.334Z,99798.94
2023-02-21T07:39:18.966Z,99817.69
2023-02-21T07:41:20.400Z,99827.13
2023-02-21T07:43:21.855Z,99809.09
2023-02-21T07:45:23.527Z,99830.38
2023-02-21T07:47:26.272Z,99828.84
2023-02-21T07:49:27.946Z,99809.50
2023-02-21T07:51:30.787Z,99837.56
2023-02-21T07:53:32.192Z,99838.00
2023-02-21T07:55:33.700Z,99831.41
2023-02-21T07:57:35.663Z,99846.00
2023-02-21T07:59:37.069Z,99840.63
2023-02-21T08:01:38.587Z,99836.75
2023-02-21T08:03:40.244Z,99832.34
2023-02-21T08:05:42.023Z,99827.16
2023-02-21T08:07:43.769Z,99830.38
2023-02-21T08:09:45.334Z,99842.13
2023-02-21T08:11:46.729Z,99828.25
2023-02-21T08:13:48.307Z,99834.25
2023-02-21T08:15:49.859Z,99859.75
2023-02-21T08:17:51.553Z,99841.31
2023-02-21T08:19:53.639Z,99848.66
2023-02-21T08:21:55.909Z,99860.66
2023-02-21T08:23:57.309Z,99865.13
2023-02-21T08:25:58.771Z,99864.84
2023-02-21T08:28:00.223Z,99861.56
2023-02-21T08:30:01.617Z,99877.94
2023-02-21T08:32:03.495Z,99890.94
2023-02-21T08:34:06.776Z,99883.41
2023-02-21T08:36:08.276Z,99902.38
2023-02-21T08:38:09.787Z,99866.69
2023-02-21T08:40:11.694Z,99884.38
2023-02-21T08:42:14.024Z,99879.91
2023-02-21T08:44:17.177Z,99889.41
2023-02-21T08:46:18.673Z,99898.81
2023-02-21T08:48:20.081Z,99913.72
2023-02-21T08:50:27.539Z,99903.56
2023-02-21T08:52:29.121Z,99921.84
2023-02-21T08:54:30.502Z,99928.22
2023-02-21T08:56:32.227Z,99933.50
2023-02-21T08:58:34.604Z,99900.41
2023-02-21T09:00:36.743Z,99933.59
2023-02-21T09:02:38.664Z,99941.22
2023-02-21T09:04:40.337Z,99944.28
2023-02-21T09:06:41.740Z,99942.03
2023-02-21T09:08:43.528Z,99934.75
2023-02-21T09:10:45.075Z,99957.06
2023-02-21T09:12:46.570Z,99956.19
2023-02-21T09:14:48.040Z,99960.75
2023-02-21T09:16:49.772Z,99947.47
2023-02-21T09:18:59.315Z,99952.03
2023-02-21T09:21:00.898Z,99968.13
2023-02-21T09:23:02.381Z,99967.56
2023-02-21T09:25:04.346Z,99957.16
2023-02-21T09:27:06.095Z,99986.78
2023-02-21T09:29:07.608Z,99991.94
2023-02-21T09:31:09.470Z,99947.22
2023-02-21T09:33:11.565Z,99970.13
2023-02-21T09:35:14.236Z,99996.25
2023-02-21T09:37:15.704Z,99975.09
2023-02-21T09:39:18.576Z,99996.00
2023-02-21T09:41:20.726Z,99995.56
2023-02-21T09:43:33.466Z,99996.13
2023-02-21T09:45:37.178Z,100007.16
2023-02-21T09:47:39.230Z,99991.50
2023-02-21T09:49:42.242Z,100002.63
2023-02-21T09:51:44.338Z,100000.09
2023-02-21T09:53:48.111Z,100013.53
2023-02-21T09:55:51.843Z,100007.81
2023-02-21T09:57:54.326Z,100002.63
2023-02-21T09:59:55.740Z,100021.66
2023-02-21T10:02:12.516Z,100025.91
2023-02-21T10:04:31.446Z,100006.19
2023-02-21T10:06:44.683Z,100026.19
2023-02-21T10:09:06.633Z,100017.81
2023-02-21T10:11:21.844Z,100030.88
2023-02-21T10:13:43.533Z,100030.31
2023-02-21T10:16:03.144Z,100034.56
2023-02-21T10:18:32.488Z,100039.16
2023-02-21T10:20:50.533Z,100042.34
2023-02-21T10:22:52.645Z,100042.41
2023-02-21T10:24:54.273Z,100038.88
2023-02-21T10:27:31.058Z,100045.09
2023-02-21T10:29:42.770Z,100050.97
2023-02-21T10:31:45.535Z,100047.97
2023-02-21T10:33:47.086Z,100050.28
2023-02-21T10:35:48.502Z,100053.63
2023-02-21T10:37:56.419Z,100059.81
2023-02-21T10:40:08.175Z,100056.53
2023-02-21T10:42:26.472Z,100069.81
2023-02-21T10:44:34.684Z,100008.81
2023-02-21T10:47:11.017Z,100060.84
2023-02-21T10:49:24.950Z,100066.16
2023-02-21T10:51:32.067Z,100074.22
2023-02-21T10:53:42.520Z,100066.88
2023-02-21T10:55:43.967Z,100071.75
2023-02-21T10:57:49.992Z,100078.88
2023-02-21T10:59:51.595Z,100068.53
2023-02-21T11:01:54.348Z,100079.47
2023-02-21T11:04:22.845Z,100071.47
2023-02-21T11:06:39.493Z,100071.56
2023-02-21T11:08:43.596Z,100083.09
2023-02-21T11:10:45.134Z,100093.06
2023-02-21T11:13:02.420Z,100104.16
2023-02-21T11:15:15.346Z,100106.50
2023-02-21T11:17:20.361Z,100105.06
2023-02-21T11:19:21.941Z,100097.16
2023-02-21T11:21:23.367Z,100103.88
2023-02-21T11:23:28.200Z,100100.47
2023-02-21T11:25:32.378Z,100076.31
2023-02-21T11:27:36.758Z,100090.00
2023-02-21T11:29:43.821Z,100079.16
2023-02-21T11:31:46.014Z,100082.63
2023-02-21T11:33:56.428Z,100078.03
2023-02-21T11:36:15.892Z,100097.00
2023-02-21T11:38:42.148Z,100096.22
2023-02-21T11:40:48.945Z,100101.69
2023-02-21T11:42:50.514Z,100095.78
2023-02-21T11:45:11.259Z,100092.56
2023-02-21T11:47:26.921Z,100093.44
2023-02-21T11:49:58.881Z,100111.03
2023-02-21T11:52:04.833Z,100108.56
2023-02-21T11:54:07.006Z,100096.25
2023-02-21T11:56:17.412Z,100111.41
2023-02-21T11:58:27.128Z,100120.50
2023-02-21T12:00:34.882Z,100098.72
2023-02-21T12:02:55.603Z,100111.78
2023-02-21T12:05:03.110Z,100116.75
2023-02-21T12:07:38.118Z,100132.06
2023-02-21T12:10:08.195Z,100128.38
2023-02-21T12:12:21.870Z,100117.56
2023-02-21T12:15:00.707Z,100118.31
2023-02-21T12:17:32.422Z,100119.16
2023-02-21T12:19:44.178Z,100098.56
2023-02-21T12:21:51.385Z,100118.09
2023-02-21T12:24:04.790Z,100127.41
2023-02-21T12:26:42.549Z,100132.31
2023-02-21T12:29:25.131Z,100116.28
2023-02-21T12:32:15.949Z,100125.41
2023-02-21T12:34:39.052Z,100134.88
2023-02-21T12:37:03.735Z,100132.53
2023-02-21T12:39:28.948Z,100137.63
2023-02-21T12:41:42.097Z,100146.38
2023-02-21T12:44:05.892Z,100125.44
2023-02-21T12:46:19.741Z,100145.53
2023-02-21T12:48:39.135Z,100157.09
2023-02-21T12:50:44.846Z,100146.09
2023-02-21T12:53:10.992Z,100145.03
2023-02-21T12:55:23.558Z,100142.53
2023-02-21T12:57:51.461Z,100161.84
2023-02-21T12:59:56.061Z,100165.25
2023-02-21T13:02:12.627Z,100160.25
2023-02-21T13:04:38.087Z,100158.38
2023-02-21T13:07:05.556Z,100153.41
2023-02-21T13:09:06.939Z,100157.50
2023-02-21T13:11:22.015Z,100161.94
2023-02-21T13:13:30.275Z,100156.88
2023-02-21T13:15:31.869Z,100147.63
2023-02-21T13:17:33.320Z,100118.69
2023-02-21T13:19:43.194Z,100166.72
2023-02-21T13:21:54.106Z,100167.78
2023-02-21T13:24:52.031Z,100163.91
2023-02-21T13:27:15.280Z,100153.59
2023-02-21T13:29:24.093Z,100167.50
2023-02-21T13:31:28.971Z,100165.59
2023-02-21T13:33:37.817Z,100172.50
2023-02-21T13:35:40.087Z,100173.53
2023-02-21T13:37:47.982Z,100172.66
2023-02-21T13:39:56.557Z,100173.44
2023-02-21T13:42:07.931Z,100181.59
2023-02-21T13:44:12.703Z,100177.19
2023-02-21T13:46:30.406Z,100180.25
2023-02-21T13:48:31.899Z,100140.91
2023-02-21T13:50:39.636Z,100170.59
2023-02-21T13:52:53.642Z,100156.81
2023-02-21T13:55:13.414Z,100184.19
2023-02-21T13:57:31.727Z,100179.38
2023-02-21T13:59:35.504Z,100179.16
2023-02-21T14:01:36.876Z,100186.09
2023-02-21T14:03:38.309Z,100175.16
2023-02-21T14:05:49.000Z,100185.50
2023-02-21T14:08:29.215Z,100197.13
2023-02-21T14:10:38.833Z,100191.56
2023-02-21T14:12:44.779Z,100174.59
2023-02-21T14:14:46.321Z,100178.22
2023-02-21T14:16:58.458Z,100199.66
2023-02-21T14:21:24.108Z,100203.66
2023-02-21T14:23:39.248Z,100199.56
2023-02-21T14:25:41.065Z,100199.44
2023-02-21T14:27:42.596Z,100200.94
2023-02-21T14:29:59.024Z,100208.13
2023-02-21T14:32:03.829Z,100212.47
2023-02-21T14:34:08.170Z,100184.78
2023-02-21T14:36:11.184Z,100212.06
2023-02-21T14:38:24.899Z,100222.31
2023-02-21T14:40:32.139Z,100224.81
2023-02-21T14:42:46.226Z,100208.72
2023-02-21T14:45:04.953Z,100212.88
2023-02-21T14:47:20.879Z,100235.25
2023-02-21T14:49:40.032Z,100231.66
2023-02-21T14:52:08.191Z,100232.03
2023-02-21T14:54:15.581Z,100230.41
2023-02-21T14:56:43.561Z,100230.56
2023-02-21T14:59:03.471Z,100230.97
2023-02-21T15:01:32.522Z,100245.94
2023-02-21T15:04:18.955Z,100240.63
2023-02-21T15:06:21.842Z,100238.34
2023-02-21T15:08:25.989Z,100250.59
2023-02-21T15:10:30.424Z,100252.50
2023-02-21T15:12:31.882Z,100256.00
2023-02-21T15:14:39.744Z,100250.72
2023-02-21T15:16:47.159Z,100268.28
2023-02-21T15:19:17.166Z,100248.81
2023-02-21T15:21:20.301Z,100264.75
2023-02-21T15:23:22.538Z,100252.16
2023-02-21T15:25:24.301Z,100272.47
2023-02-21T15:27:25.821Z,100263.56
2023-02-21T15:29:27.508Z,100279.56
2023-02-21T15:31:31.956Z,100279.13
2023-02-21T15:33:36.193Z,100286.91
2023-02-21T15:35:42.202Z,100276.34
2023-02-21T15:37:45.364Z,100279.16
2023-02-21T15:39:55.595Z,100301.13
2023-02-21T15:41:57.491Z,100286.78
2023-02-21T15:44:26.764Z,100291.91
2023-02-21T15:46:34.393Z,100272.34
2023-02-21T15:48:36.400Z,100297.47
2023-02-21T15:50:45.043Z,100301.94
2023-02-21T15:52:49.172Z,100307.38
2023-02-21T15:54:50.803Z,100304.72
2023-02-21T15:57:11.540Z,100304.69
2023-02-21T15:59:15.631Z,100312.78
2023-02-21T16:01:20.579Z,100297.09
2023-02-21T16:03:28.148Z,100315.13
2023-02-21T16:05:30.634Z,100295.97
2023-02-21T16:07:37.257Z,100326.13
2023-02-21T16:09:45.198Z,100315.69
2023-02-21T16:11:51.975Z,100327.53
2023-02-21T16:13:53.773Z,100318.34
2023-02-21T16:15:59.580Z,100306.94
2023-02-21T16:18:07.368Z,100321.81
2023-02-21T16:20:14.218Z,100346.56
2023-02-21T16:22:38.787Z,100345.88
2023-02-21T16:24:44.845Z,100341.94
2023-02-21T16:27:02.948Z,100338.47
2023-02-21T16:29:04.354Z,100341.13
2023-02-21T16:31:10.241Z,100348.34
2023-02-21T16:33:12.126Z,100332.78
2023-02-21T16:35:20.441Z,100348.34
2023-02-21T16:37:22.732Z,100361.69
2023-02-21T16:39:24.395Z,100340.81
2023-02-21T16:41:26.467Z,100365.84
2023-02-21T16:43:29.114Z,100366.41
2023-02-21T16:45:31.919Z,100356.66
2023-02-21T16:47:33.296Z,100360.28
2023-02-21T16:49:34.691Z,100367.06
2023-02-21T16:51:36.191Z,100364.59
2023-02-21T16:53:37.570Z,100376.56
2023-02-21T16:55:39.429Z,100370.81
2023-02-21T16:57:41.009Z,100351.59
2023-02-21T16:59:42.469Z,100363.38
2023-02-21T17:01:44.068Z,100372.22
2023-02-21T17:03:45.841Z,100382.34
2023-02-21T17:05:47.659Z,100368.75
2023-02-21T17:07:49.836Z,100380.94
2023-02-21T17:09:53.693Z,100388.97
2023-02-21T17:11:55.833Z,100391.03
2023-02-21T17:13:57.232Z,100406.28
2023-02-21T17:15:58.996Z,100407.56
2023-02-21T17:18:01.365Z,100405.38
2023-02-21T17:20:02.926Z,100392.91
2023-02-21T17:22:04.585Z,100401.63
2023-02-21T17:24:06.397Z,100404.13
2023-02-21T17:26:07.824Z,100414.66
2023-02-21T17:28:09.256Z,100408.59
2023-02-21T17:30:11.948Z,100419.19
2023-02-21T17:32:15.930Z,100424.44
2023-02-21T17:34:17.844Z,100400.88
2023-02-21T17:36:21.862Z,100412.75
2023-02-21T17:38:23.276Z,100429.81
2023-02-21T17:40:25.012Z,100414.84
2023-02-21T17:42:26.499Z,100430.13
2023-02-21T17:44:28.361Z,100431.03
2023-02-21T17:46:29.987Z,100439.91
2023-02-21T17:48:31.463Z,100439.81
2023-02-21T17:50:33.124Z,100444.13
2023-02-21T17:52:34.718Z,100446.84
2023-02-21T17:54:36.123Z,100432.03
2023-02-21T17:56:37.565Z,100439.09
2023-02-21T17:58:39.324Z,100456.56
2023-02-21T18:00:40.762Z,100452.78
2023-02-21T18:02:42.143Z,100444.19
2023-02-21T18:04:43.849Z,100447.25
2023-02-21T18:06:45.317Z,100451.25
2023-02-21T18:08:46.796Z,100441.00
2023-02-21T18:10:48.524Z,100459.88
2023-02-21T18:12:51.423Z,100446.22
2023-02-21T18:14:53.077Z,100465.09
2023-02-21T18:16:54.724Z,100459.13
2023-02-21T18:18:56.161Z,100461.91
2023-02-21T18:20:58.067Z,100473.34
2023-02-21T18:22:59.862Z,100464.94
2023-02-21T18:25:01.271Z,100467.81
2023-02-21T18:27:02.677Z,100467.63
2023-02-21T18:29:06.146Z,100480.47
2023-02-21T18:31:09.428Z,100488.38
2023-02-21T18:33:12.281Z,100476.25
2023-02-21T18:35:16.200Z,100463.50
2023-02-21T18:37:18.257Z,100479.72
2023-02-21T18:39:22.176Z,100488.56
2023-02-21T18:41:23.716Z,100474.44
2023-02-21T18:43:27.987Z,100485.53
2023-02-21T18:45:30.269Z,100500.16
2023-02-21T18:47:31.940Z,100486.56
2023-02-21T18:49:34.524Z,100500.78
2023-02-21T18:51:36.635Z,100507.84
2023-02-21T18:53:38.550Z,100508.13
2023-02-21T18:55:40.028Z,100493.03
2023-02-21T18:57:44.120Z,100507.78
2023-02-21T18:59:46.380Z,100513.06
2023-02-21T19:01:52.529Z,100518.66
2023-02-21T19:03:54.744Z,100469.00
2023-02-21T19:05:56.530Z,100525.88
2023-02-21T19:07:58.105Z,100524.84
2023-02-21T19:09:59.531Z,100532.31
2023-02-21T19:12:04.913Z,100525.75
2023-02-21T19:14:06.327Z,100536.66
2023-02-21T19:16:07.914Z,100512.31
2023-02-21T19:18:09.811Z,100528.19
2023-02-21T19:20:14.533Z,100535.72
2023-02-21T19:22:15.943Z,100540.97
2023-02-21T19:24:17.688Z,100548.88
2023-02-21T19:26:19.182Z,100550.09
2023-02-21T19:28:20.773Z,100546.25
2023-02-21T19:30:22.570Z,100529.28
2023-02-21T19:32:24.859Z,100552.34
2023-02-21T19:34:26.335Z,100541.97
2023-02-21T19:36:28.164Z,100557.28
2023-02-21T19:38:30.067Z,100553.13
2023-02-21T19:40:32.244Z,100554.09
2023-02-21T19:42:34.785Z,100562.09
2023-02-21T19:44:36.437Z,100559.41
2023-02-21T19:46:38.190Z,100564.72
2023-02-21T19:48:39.746Z,100557.66
2023-02-21T19:50:41.435Z,100563.28
2023-02-21T19:52:42.867Z,100574.31
2023-02-21T19:54:46.794Z,100548.94
2023-02-21T19:56:48.566Z,100568.88
2023-02-21T19:58:49.972Z,100567.09
2023-02-21T20:00:51.599Z,100562.56
2023-02-21T20:02:54.121Z,100571.03
2023-02-21T20:04:55.601Z,100567.94
2023-02-21T20:06:57.924Z,100572.38
2023-02-21T20:08:59.348Z,100576.31
2023-02-21T20:11:00.758Z,100557.44
2023-02-21T20:13:02.469Z,100574.66
2023-02-21T20:15:05.321Z,100578.63
2023-02-21T20:17:06.716Z,100581.97
2023-02-21T20:19:08.371Z,100584.22
2023-02-21T20:21:10.371Z,100594.75
2023-02-21T20:23:11.811Z,100588.16
2023-02-21T20:25:13.502Z,100591.97
2023-02-21T20:27:15.593Z,100580.63
2023-02-21T20:29:17.458Z,100601.44
2023-02-21T20:31:20.542Z,100560.75
2023-02-21T20:33:22.174Z,100606.09
2023-02-21T20:35:23.557Z,100606.81
2023-02-21T20:37:25.154Z,100589.56
2023-02-21T20:39:28.599Z,100603.72
2023-02-21T20:41:33.422Z,100588.53
2023-02-21T20:43:35.726Z,100620.97
2023-02-21T20:45:37.136Z,100612.94
2023-02-21T20:47:38.934Z,100608.97
2023-02-21T20:49:44.360Z,100619.63
2023-02-21T20:51:45.776Z,100620.34
2023-02-21T20:53:47.164Z,100619.88
2023-02-21T20:55:48.705Z,100614.09
2023-02-21T20:57:50.153Z,100605.38
2023-02-21T20:59:51.545Z,100579.31
2023-02-21T21:01:53.506Z,100607.78
2023-02-21T21:03:54.913Z,100619.28
2023-02-21T21:05:56.535Z,100622.38
2023-02-21T21:07:58.550Z,100629.94
2023-02-21T21:09:59.950Z,100634.34
2023-02-21T21:12:06.642Z,100637.22
2023-02-21T21:14:08.441Z,100620.69
2023-02-21T21:16:10.221Z,100639.97
2023-02-21T21:18:11.777Z,100647.13
2023-02-21T21:20:19.848Z,100625.59
2023-02-21T21:22:23.995Z,100637.91
2023-02-21T21:24:25.383Z,100649.16
2023-02-21T21:26:26.858Z,100652.50
2023-02-21T21:28:28.755Z,100664.59
2023-02-21T21:30:30.244Z,100603.09
2023-02-21T21:32:31.892Z,100643.34
2023-02-21T21:34:33.567Z,100660.63
2023-02-21T21:36:35.046Z,100666.84
2023-02-21T21:38:36.933Z,100644.72
2023-02-21T21:40:38.366Z,100673.44
2023-02-21T21:42:39.861Z,100677.50
2023-02-21T21:44:45.997Z,100680.97
2023-02-21T21:46:48.123Z,100683.38
2023-02-21T21:48:49.528Z,100682.66
2023-02-21T21:50:51.011Z,100673.69
2023-02-21T21:52:57.082Z,100658.22
2023-02-21T21:54:59.024Z,100662.94
2023-02-21T21:57:00.690Z,100691.25
2023-02-21T21:59:02.157Z,100691.22
2023-02-21T22:01:04.813Z,100695.56
2023-02-21T22:03:07.070Z,100692.72
2023-02-21T22:05:08.467Z,100709.81
2023-02-21T22:07:10.405Z,100703.47
2023-02-21T22:09:13.423Z,100702.94
2023-02-21T22:11:15.080Z,100707.84
2023-02-21T22:13:16.728Z,100686.69
2023-02-21T22:15:24.826Z,100711.69
2023-02-21T22:17:26.271Z,100703.78
2023-02-21T22:19:28.515Z,100716.25
2023-02-21T22:21:30.549Z,100715.88
2023-02-21T22:23:32.030Z,100713.03
2023-02-21T22:25:33.634Z,100724.75
2023-02-21T22:27:35.384Z,100724.72
2023-02-21T22:29:36.848Z,100731.78
2023-02-21T22:31:38.293Z,100716.00
2023-02-21T22:33:40.128Z,100727.78
2023-02-21T22:35:41.583Z,100734.47
2023-02-21T22:37:54.187Z,100711.56
2023-02-21T22:39:55.750Z,100735.72
2023-02-21T22:41:57.147Z,100740.78
2023-02-21T22:43:58.807Z,100743.66
2023-02-21T22:46:00.760Z,100722.09
2023-02-21T22:48:04.873Z,100724.06
2023-02-21T22:50:06.464Z,100719.84
2023-02-21T22:52:08.032Z,100754.63
2023-02-21T22:54:12.479Z,100757.88
2023-02-21T22:56:14.508Z,100749.28
2023-02-21T22:58:17.594Z,100755.59
2023-02-21T23:00:23.150Z,100753.91
2023-02-21T23:02:25.492Z,100756.94
2023-02-21T23:04:27.281Z,100757.31
2023-02-21T23:06:28.743Z,100757.44
2023-02-21T23:08:30.863Z,100760.22
2023-02-21T23:10:32.335Z,100759.19
2023-02-21T23:12:33.747Z,100756.28
2023-02-21T23:14:35.203Z,100766.06
2023-02-21T23:16:36.888Z,100758.94
2023-02-21T23:18:38.306Z,100742.78
2023-02-21T23:20:39.706Z,100769.06
2023-02-21T23:22:48.826Z,100772.06
2023-02-21T23:24:50.261Z,100778.25
2023-02-21T23:26:52.328Z,100781.53
2023-02-21T23:28:54.578Z,100774.22
2023-02-21T23:30:56.040Z,100779.06
2023-02-21T23:32:57.484Z,100790.97
2023-02-21T23:34:58.952Z,100797.78
2023-02-21T23:37:00.349Z,100795.91
2023-02-21T23:39:01.726Z,100776.81
2023-02-21T23:41:03.205Z,100801.69
2023-02-21T23:43:04.690Z,100781.34
2023-02-21T23:45:06.317Z,100794.94
2023-02-21T23:47:07.940Z,100794.66
2023-02-21T23:49:11.645Z,100798.88
2023-02-21T23:51:12.976Z,100790.16
2023-02-21T23:53:20.542Z,100800.66
2023-02-21T23:55:23.655Z,100805.00
2023-02-21T23:57:25.061Z,100807.75
2023-02-21T23:59:27.097Z,100807.00
